sensor_id;sensor_type;location;lat;lon;timestamp;temperature;humidity
51327;DHT22;37412;52.836;6.362;2023-04-24T00:02:13;10.50;99.90
51327;DHT22;37412;52.836;6.362;2023-04-24T00:04:59;11.00;99.90
51327;DHT22;37412;52.836;6.362;2023-04-24T00:07:48;11.00;99.90
51327;DHT22;37412;52.836;6.362;2023-04-24T00:10:34;10.40;99.90
51327;DHT22;37412;52.836;6.362;2023-04-24T00:13:20;10.50;99.90
51327;DHT22;37412;52.836;6.362;2023-04-24T00:16:05;10.40;99.90
51327;DHT22;37412;52.836;6.362;2023-04-24T00:18:51;10.40;99.90
51327;DHT22;37412;52.836;6.362;2023-04-24T00:21:41;10.40;99.90
51327;DHT22;37412;52.836;6.362;2023-04-24T00:24:27;10.30;99.90
51327;DHT22;37412;52.836;6.362;2023-04-24T00:27:13;10.30;99.90
51327;DHT22;37412;52.836;6.362;2023-04-24T00:29:59;10.20;99.90
51327;DHT22;37412;52.836;6.362;2023-04-24T00:32:45;10.20;99.90
51327;DHT22;37412;52.836;6.362;2023-04-24T00:35:30;10.20;99.90
51327;DHT22;37412;52.836;6.362;2023-04-24T00:38:16;10.20;99.90
51327;DHT22;37412;52.836;6.362;2023-04-24T00:41:02;10.10;99.90
51327;DHT22;37412;52.836;6.362;2023-04-24T00:43:48;10.10;99.90
51327;DHT22;37412;52.836;6.362;2023-04-24T00:46:34;10.10;99.90
51327;DHT22;37412;52.836;6.362;2023-04-24T00:49:21;10.10;99.90
51327;DHT22;37412;52.836;6.362;2023-04-24T00:52:07;10.10;99.90
51327;DHT22;37412;52.836;6.362;2023-04-24T00:54:54;10.10;99.90
51327;DHT22;37412;52.836;6.362;2023-04-24T00:57:40;10.10;99.90
51327;DHT22;37412;52.836;6.362;2023-04-24T01:00:26;10.00;99.90
51327;DHT22;37412;52.836;6.362;2023-04-24T01:03:12;10.00;99.90
51327;DHT22;37412;52.836;6.362;2023-04-24T01:05:59;10.10;99.90
51327;DHT22;37412;52.836;6.362;2023-04-24T01:08:46;10.00;99.90
51327;DHT22;37412;52.836;6.362;2023-04-24T01:11:33;10.00;99.90
51327;DHT22;37412;52.836;6.362;2023-04-24T01:14:18;10.00;99.90
51327;DHT22;37412;52.836;6.362;2023-04-24T01:17:05;10.00;99.90
51327;DHT22;37412;52.836;6.362;2023-04-24T01:19:51;10.00;99.90
51327;DHT22;37412;52.836;6.362;2023-04-24T01:22:42;10.10;99.90
51327;DHT22;37412;52.836;6.362;2023-04-24T01:25:28;10.10;99.90
51327;DHT22;37412;52.836;6.362;2023-04-24T01:28:14;10.10;99.90
51327;DHT22;37412;52.836;6.362;2023-04-24T01:31:00;10.10;99.90
51327;DHT22;37412;52.836;6.362;2023-04-24T01:33:46;10.10;99.90
51327;DHT22;37412;52.836;6.362;2023-04-24T01:36:32;10.10;99.90
51327;DHT22;37412;52.836;6.362;2023-04-24T01:39:18;10.10;99.90
51327;DHT22;37412;52.836;6.362;2023-04-24T01:42:06;10.10;99.90
51327;DHT22;37412;52.836;6.362;2023-04-24T01:44:52;10.10;99.90
51327;DHT22;37412;52.836;6.362;2023-04-24T01:47:38;10.10;99.90
51327;DHT22;37412;52.836;6.362;2023-04-24T01:50:24;10.10;99.90
51327;DHT22;37412;52.836;6.362;2023-04-24T01:53:10;10.30;99.90
51327;DHT22;37412;52.836;6.362;2023-04-24T01:55:57;10.10;99.90
51327;DHT22;37412;52.836;6.362;2023-04-24T01:58:42;10.10;99.90
51327;DHT22;37412;52.836;6.362;2023-04-24T02:01:32;10.10;99.90
51327;DHT22;37412;52.836;6.362;2023-04-24T02:04:18;10.10;99.90
51327;DHT22;37412;52.836;6.362;2023-04-24T02:07:04;10.10;99.90
51327;DHT22;37412;52.836;6.362;2023-04-24T02:09:50;10.10;99.90
51327;DHT22;37412;52.836;6.362;2023-04-24T02:12:36;10.10;99.90
51327;DHT22;37412;52.836;6.362;2023-04-24T02:15:22;9.70;99.90
51327;DHT22;37412;52.836;6.362;2023-04-24T02:18:08;10.00;99.90
51327;DHT22;37412;52.836;6.362;2023-04-24T02:20:54;10.00;99.90
51327;DHT22;37412;52.836;6.362;2023-04-24T02:23:40;10.00;99.90
51327;DHT22;37412;52.836;6.362;2023-04-24T02:26:25;9.90;99.90
51327;DHT22;37412;52.836;6.362;2023-04-24T02:29:11;9.90;99.90
51327;DHT22;37412;52.836;6.362;2023-04-24T02:31:57;10.00;99.90
51327;DHT22;37412;52.836;6.362;2023-04-24T02:34:43;9.90;99.90
51327;DHT22;37412;52.836;6.362;2023-04-24T02:37:29;9.90;99.90
51327;DHT22;37412;52.836;6.362;2023-04-24T02:40:15;9.90;99.90
51327;DHT22;37412;52.836;6.362;2023-04-24T02:43:01;9.90;99.90
51327;DHT22;37412;52.836;6.362;2023-04-24T02:45:46;9.80;99.90
51327;DHT22;37412;52.836;6.362;2023-04-24T02:48:32;9.80;99.90
51327;DHT22;37412;52.836;6.362;2023-04-24T02:51:18;9.80;99.90
51327;DHT22;37412;52.836;6.362;2023-04-24T02:54:04;9.80;99.90
51327;DHT22;37412;52.836;6.362;2023-04-24T02:56:50;9.80;99.90
51327;DHT22;37412;52.836;6.362;2023-04-24T02:59:36;9.80;99.90
51327;DHT22;37412;52.836;6.362;2023-04-24T03:02:22;9.80;99.90
51327;DHT22;37412;52.836;6.362;2023-04-24T03:05:07;9.80;99.90
51327;DHT22;37412;52.836;6.362;2023-04-24T03:07:54;9.70;99.90
51327;DHT22;37412;52.836;6.362;2023-04-24T03:10:40;9.70;99.90
51327;DHT22;37412;52.836;6.362;2023-04-24T03:13:26;9.70;99.90
51327;DHT22;37412;52.836;6.362;2023-04-24T03:16:12;9.90;99.90
51327;DHT22;37412;52.836;6.362;2023-04-24T03:18:57;9.70;99.90
51327;DHT22;37412;52.836;6.362;2023-04-24T03:21:43;9.60;99.90
51327;DHT22;37412;52.836;6.362;2023-04-24T03:24:29;9.60;99.90
51327;DHT22;37412;52.836;6.362;2023-04-24T03:27:16;9.60;99.90
51327;DHT22;37412;52.836;6.362;2023-04-24T03:30:02;9.60;99.90
51327;DHT22;37412;52.836;6.362;2023-04-24T03:32:48;9.60;99.90
51327;DHT22;37412;52.836;6.362;2023-04-24T03:35:34;9.60;99.90
51327;DHT22;37412;52.836;6.362;2023-04-24T03:38:20;9.80;99.90
51327;DHT22;37412;52.836;6.362;2023-04-24T03:41:06;9.60;99.90
51327;DHT22;37412;52.836;6.362;2023-04-24T03:43:51;9.50;99.90
51327;DHT22;37412;52.836;6.362;2023-04-24T03:46:37;9.50;99.90
51327;DHT22;37412;52.836;6.362;2023-04-24T03:49:23;9.60;99.90
51327;DHT22;37412;52.836;6.362;2023-04-24T03:52:12;9.60;99.90
51327;DHT22;37412;52.836;6.362;2023-04-24T03:54:58;9.60;99.90
51327;DHT22;37412;52.836;6.362;2023-04-24T03:57:44;9.60;99.90
51327;DHT22;37412;52.836;6.362;2023-04-24T04:00:29;9.60;99.90
51327;DHT22;37412;52.836;6.362;2023-04-24T04:03:17;9.60;99.90
51327;DHT22;37412;52.836;6.362;2023-04-24T04:06:03;9.60;99.90
51327;DHT22;37412;52.836;6.362;2023-04-24T04:08:49;9.60;99.90
51327;DHT22;37412;52.836;6.362;2023-04-24T04:11:35;9.60;99.90
51327;DHT22;37412;52.836;6.362;2023-04-24T04:14:21;9.60;99.90
51327;DHT22;37412;52.836;6.362;2023-04-24T04:17:07;9.60;99.90
51327;DHT22;37412;52.836;6.362;2023-04-24T04:19:53;9.50;99.90
51327;DHT22;37412;52.836;6.362;2023-04-24T04:22:38;9.50;99.90
51327;DHT22;37412;52.836;6.362;2023-04-24T04:25:25;9.50;99.90
51327;DHT22;37412;52.836;6.362;2023-04-24T04:28:10;9.40;99.90
51327;DHT22;37412;52.836;6.362;2023-04-24T04:30:57;9.20;99.90
51327;DHT22;37412;52.836;6.362;2023-04-24T04:33:43;9.40;99.90
51327;DHT22;37412;52.836;6.362;2023-04-24T04:36:29;9.30;99.90
51327;DHT22;37412;52.836;6.362;2023-04-24T04:39:15;9.30;99.90
51327;DHT22;37412;52.836;6.362;2023-04-24T04:42:02;9.30;99.90
51327;DHT22;37412;52.836;6.362;2023-04-24T04:44:47;9.30;99.90
51327;DHT22;37412;52.836;6.362;2023-04-24T04:47:34;9.20;99.90
51327;DHT22;37412;52.836;6.362;2023-04-24T04:50:20;9.20;99.90
51327;DHT22;37412;52.836;6.362;2023-04-24T04:53:06;9.20;99.90
51327;DHT22;37412;52.836;6.362;2023-04-24T04:55:52;9.10;99.90
51327;DHT22;37412;52.836;6.362;2023-04-24T04:58:38;9.10;99.90
51327;DHT22;37412;52.836;6.362;2023-04-24T05:01:24;9.10;99.90
51327;DHT22;37412;52.836;6.362;2023-04-24T05:04:11;9.10;99.90
51327;DHT22;37412;52.836;6.362;2023-04-24T05:06:57;9.20;99.90
51327;DHT22;37412;52.836;6.362;2023-04-24T05:09:42;9.20;99.90
51327;DHT22;37412;52.836;6.362;2023-04-24T05:12:30;9.30;99.90
51327;DHT22;37412;52.836;6.362;2023-04-24T05:15:16;9.30;99.90
51327;DHT22;37412;52.836;6.362;2023-04-24T05:18:02;9.40;99.90
51327;DHT22;37412;52.836;6.362;2023-04-24T05:20:48;9.40;99.90
51327;DHT22;37412;52.836;6.362;2023-04-24T05:23:34;9.50;99.90
51327;DHT22;37412;52.836;6.362;2023-04-24T05:26:20;9.60;99.90
51327;DHT22;37412;52.836;6.362;2023-04-24T05:29:06;9.60;99.90
51327;DHT22;37412;52.836;6.362;2023-04-24T05:31:52;9.70;99.90
51327;DHT22;37412;52.836;6.362;2023-04-24T05:34:38;9.70;99.90
51327;DHT22;37412;52.836;6.362;2023-04-24T05:37:24;9.80;99.90
51327;DHT22;37412;52.836;6.362;2023-04-24T05:40:10;9.80;99.90
51327;DHT22;37412;52.836;6.362;2023-04-24T05:42:56;9.90;99.90
51327;DHT22;37412;52.836;6.362;2023-04-24T05:45:42;9.90;99.90
51327;DHT22;37412;52.836;6.362;2023-04-24T05:48:28;9.90;99.90
51327;DHT22;37412;52.836;6.362;2023-04-24T05:51:14;9.90;99.90
51327;DHT22;37412;52.836;6.362;2023-04-24T05:54:00;10.00;99.90
51327;DHT22;37412;52.836;6.362;2023-04-24T05:56:47;10.00;99.90
51327;DHT22;37412;52.836;6.362;2023-04-24T05:59:35;10.00;99.90
51327;DHT22;37412;52.836;6.362;2023-04-24T06:02:20;10.00;99.90
51327;DHT22;37412;52.836;6.362;2023-04-24T06:05:07;10.00;99.90
51327;DHT22;37412;52.836;6.362;2023-04-24T06:07:53;10.00;99.90
51327;DHT22;37412;52.836;6.362;2023-04-24T06:10:39;10.00;99.90
51327;DHT22;37412;52.836;6.362;2023-04-24T06:13:25;10.00;99.90
51327;DHT22;37412;52.836;6.362;2023-04-24T06:16:11;10.00;99.90
51327;DHT22;37412;52.836;6.362;2023-04-24T06:18:57;10.00;99.90
51327;DHT22;37412;52.836;6.362;2023-04-24T06:21:43;10.00;99.90
51327;DHT22;37412;52.836;6.362;2023-04-24T06:24:30;10.00;99.90
51327;DHT22;37412;52.836;6.362;2023-04-24T06:27:16;10.00;99.90
51327;DHT22;37412;52.836;6.362;2023-04-24T06:30:02;10.00;99.90
51327;DHT22;37412;52.836;6.362;2023-04-24T06:32:48;10.00;99.90
51327;DHT22;37412;52.836;6.362;2023-04-24T06:35:34;10.00;99.90
51327;DHT22;37412;52.836;6.362;2023-04-24T06:38:21;10.00;99.90
51327;DHT22;37412;52.836;6.362;2023-04-24T06:41:07;10.00;99.90
51327;DHT22;37412;52.836;6.362;2023-04-24T06:43:53;10.00;99.90
51327;DHT22;37412;52.836;6.362;2023-04-24T06:46:39;10.00;99.90
51327;DHT22;37412;52.836;6.362;2023-04-24T06:49:25;10.00;99.90
51327;DHT22;37412;52.836;6.362;2023-04-24T06:52:11;10.00;99.90
51327;DHT22;37412;52.836;6.362;2023-04-24T06:55:04;10.00;99.90
51327;DHT22;37412;52.836;6.362;2023-04-24T06:57:50;10.00;99.90
51327;DHT22;37412;52.836;6.362;2023-04-24T07:00:36;10.00;99.90
51327;DHT22;37412;52.836;6.362;2023-04-24T07:03:22;10.00;99.90
51327;DHT22;37412;52.836;6.362;2023-04-24T07:06:08;10.00;99.90
51327;DHT22;37412;52.836;6.362;2023-04-24T07:08:55;10.00;99.90
51327;DHT22;37412;52.836;6.362;2023-04-24T07:11:41;9.90;99.90
51327;DHT22;37412;52.836;6.362;2023-04-24T07:14:27;9.90;99.90
51327;DHT22;37412;52.836;6.362;2023-04-24T07:17:13;9.90;99.90
51327;DHT22;37412;52.836;6.362;2023-04-24T07:20:00;9.90;99.90
51327;DHT22;37412;52.836;6.362;2023-04-24T07:22:46;9.90;99.90
51327;DHT22;37412;52.836;6.362;2023-04-24T07:25:33;9.90;99.90
51327;DHT22;37412;52.836;6.362;2023-04-24T07:28:19;9.90;99.90
51327;DHT22;37412;52.836;6.362;2023-04-24T07:31:08;9.90;99.90
51327;DHT22;37412;52.836;6.362;2023-04-24T07:33:54;9.90;99.90
51327;DHT22;37412;52.836;6.362;2023-04-24T07:36:43;9.90;99.90
51327;DHT22;37412;52.836;6.362;2023-04-24T07:39:29;9.90;99.90
51327;DHT22;37412;52.836;6.362;2023-04-24T07:42:15;9.90;99.90
51327;DHT22;37412;52.836;6.362;2023-04-24T07:45:01;9.90;99.90
51327;DHT22;37412;52.836;6.362;2023-04-24T07:47:47;9.90;99.90
51327;DHT22;37412;52.836;6.362;2023-04-24T07:50:33;9.80;99.90
51327;DHT22;37412;52.836;6.362;2023-04-24T07:53:20;9.80;99.90
51327;DHT22;37412;52.836;6.362;2023-04-24T07:56:06;9.80;99.90
51327;DHT22;37412;52.836;6.362;2023-04-24T07:58:52;9.80;99.90
51327;DHT22;37412;52.836;6.362;2023-04-24T08:01:38;9.70;99.90
51327;DHT22;37412;52.836;6.362;2023-04-24T08:04:24;9.70;99.90
51327;DHT22;37412;52.836;6.362;2023-04-24T08:07:10;9.70;99.90
51327;DHT22;37412;52.836;6.362;2023-04-24T08:09:58;9.70;99.90
51327;DHT22;37412;52.836;6.362;2023-04-24T08:12:45;9.70;99.90
51327;DHT22;37412;52.836;6.362;2023-04-24T08:15:30;9.70;99.90
51327;DHT22;37412;52.836;6.362;2023-04-24T08:18:16;9.60;99.90
51327;DHT22;37412;52.836;6.362;2023-04-24T08:21:03;9.60;99.90
51327;DHT22;37412;52.836;6.362;2023-04-24T08:23:48;9.60;99.90
51327;DHT22;37412;52.836;6.362;2023-04-24T08:26:34;9.50;99.90
51327;DHT22;37412;52.836;6.362;2023-04-24T08:29:20;9.50;99.90
51327;DHT22;37412;52.836;6.362;2023-04-24T08:32:06;9.40;99.90
51327;DHT22;37412;52.836;6.362;2023-04-24T08:34:52;9.50;99.90
51327;DHT22;37412;52.836;6.362;2023-04-24T08:37:38;9.60;99.90
51327;DHT22;37412;52.836;6.362;2023-04-24T08:40:27;9.40;99.90
51327;DHT22;37412;52.836;6.362;2023-04-24T08:43:17;9.30;99.90
51327;DHT22;37412;52.836;6.362;2023-04-24T08:46:04;9.30;99.90
51327;DHT22;37412;52.836;6.362;2023-04-24T08:48:52;9.90;99.90
51327;DHT22;37412;52.836;6.362;2023-04-24T08:51:39;9.20;99.90
51327;DHT22;37412;52.836;6.362;2023-04-24T08:54:25;9.20;99.90
51327;DHT22;37412;52.836;6.362;2023-04-24T08:57:14;9.10;99.90
51327;DHT22;37412;52.836;6.362;2023-04-24T09:00:00;9.10;99.90
51327;DHT22;37412;52.836;6.362;2023-04-24T09:02:49;9.10;99.90
51327;DHT22;37412;52.836;6.362;2023-04-24T09:05:35;9.10;99.90
51327;DHT22;37412;52.836;6.362;2023-04-24T09:08:24;9.10;99.90
51327;DHT22;37412;52.836;6.362;2023-04-24T09:11:10;9.60;99.90
51327;DHT22;37412;52.836;6.362;2023-04-24T09:13:57;9.30;99.90
51327;DHT22;37412;52.836;6.362;2023-04-24T09:16:43;9.30;99.90
51327;DHT22;37412;52.836;6.362;2023-04-24T09:19:30;9.30;99.90
51327;DHT22;37412;52.836;6.362;2023-04-24T09:22:15;9.40;99.90
51327;DHT22;37412;52.836;6.362;2023-04-24T09:25:03;9.40;99.90
51327;DHT22;37412;52.836;6.362;2023-04-24T09:27:53;9.40;99.90
51327;DHT22;37412;52.836;6.362;2023-04-24T09:30:40;9.40;99.90
51327;DHT22;37412;52.836;6.362;2023-04-24T09:33:26;9.40;99.90
51327;DHT22;37412;52.836;6.362;2023-04-24T09:36:12;9.30;99.90
51327;DHT22;37412;52.836;6.362;2023-04-24T09:38:59;9.30;99.90
51327;DHT22;37412;52.836;6.362;2023-04-24T09:44:34;9.30;99.90
51327;DHT22;37412;52.836;6.362;2023-04-24T09:47:20;9.30;99.90
51327;DHT22;37412;52.836;6.362;2023-04-24T09:50:16;9.30;99.90
51327;DHT22;37412;52.836;6.362;2023-04-24T09:53:04;9.40;99.90
51327;DHT22;37412;52.836;6.362;2023-04-24T09:55:50;9.50;99.90
51327;DHT22;37412;52.836;6.362;2023-04-24T09:58:36;9.50;99.90
51327;DHT22;37412;52.836;6.362;2023-04-24T10:01:32;9.60;99.90
51327;DHT22;37412;52.836;6.362;2023-04-24T10:04:23;9.70;99.90
51327;DHT22;37412;52.836;6.362;2023-04-24T10:07:10;9.70;99.90
51327;DHT22;37412;52.836;6.362;2023-04-24T10:09:56;9.60;99.90
51327;DHT22;37412;52.836;6.362;2023-04-24T10:12:43;9.50;99.90
51327;DHT22;37412;52.836;6.362;2023-04-24T10:15:30;9.50;99.90
51327;DHT22;37412;52.836;6.362;2023-04-24T10:18:16;9.40;99.90
51327;DHT22;37412;52.836;6.362;2023-04-24T10:21:02;9.30;99.90
51327;DHT22;37412;52.836;6.362;2023-04-24T10:23:49;9.20;99.90
51327;DHT22;37412;52.836;6.362;2023-04-24T10:26:35;9.20;99.90
51327;DHT22;37412;52.836;6.362;2023-04-24T10:29:23;9.20;99.90
51327;DHT22;37412;52.836;6.362;2023-04-24T10:32:11;9.20;99.90
51327;DHT22;37412;52.836;6.362;2023-04-24T10:34:57;9.20;99.90
51327;DHT22;37412;52.836;6.362;2023-04-24T10:37:44;9.10;99.90
51327;DHT22;37412;52.836;6.362;2023-04-24T10:40:34;9.20;99.90
51327;DHT22;37412;52.836;6.362;2023-04-24T10:43:20;9.20;99.90
51327;DHT22;37412;52.836;6.362;2023-04-24T10:46:06;9.70;99.90
51327;DHT22;37412;52.836;6.362;2023-04-24T10:48:52;9.70;99.90
51327;DHT22;37412;52.836;6.362;2023-04-24T10:51:50;9.60;99.90
51327;DHT22;37412;52.836;6.362;2023-04-24T10:54:40;9.70;99.90
51327;DHT22;37412;52.836;6.362;2023-04-24T10:57:27;9.70;99.90
51327;DHT22;37412;52.836;6.362;2023-04-24T11:00:19;9.70;99.90
51327;DHT22;37412;52.836;6.362;2023-04-24T11:03:06;9.70;99.90
51327;DHT22;37412;52.836;6.362;2023-04-24T11:05:55;9.70;99.90
51327;DHT22;37412;52.836;6.362;2023-04-24T11:08:44;9.80;99.90
51327;DHT22;37412;52.836;6.362;2023-04-24T11:11:30;9.60;99.90
51327;DHT22;37412;52.836;6.362;2023-04-24T11:14:16;9.60;99.90
51327;DHT22;37412;52.836;6.362;2023-04-24T11:17:02;9.60;99.90
51327;DHT22;37412;52.836;6.362;2023-04-24T11:19:50;9.60;99.90
51327;DHT22;37412;52.836;6.362;2023-04-24T11:22:37;9.60;99.90
51327;DHT22;37412;52.836;6.362;2023-04-24T11:25:25;9.60;99.90
51327;DHT22;37412;52.836;6.362;2023-04-24T11:28:14;9.70;99.90
51327;DHT22;37412;52.836;6.362;2023-04-24T11:31:33;9.80;99.90
51327;DHT22;37412;52.836;6.362;2023-04-24T11:36:53;9.90;99.90
51327;DHT22;37412;52.836;6.362;2023-04-24T11:39:39;9.90;99.90
51327;DHT22;37412;52.836;6.362;2023-04-24T11:42:25;9.90;99.90
51327;DHT22;37412;52.836;6.362;2023-04-24T11:45:15;9.80;99.90
51327;DHT22;37412;52.836;6.362;2023-04-24T11:48:02;9.70;99.90
51327;DHT22;37412;52.836;6.362;2023-04-24T11:50:48;9.60;99.90
51327;DHT22;37412;52.836;6.362;2023-04-24T11:53:34;9.50;99.90
51327;DHT22;37412;52.836;6.362;2023-04-24T11:56:22;9.50;99.90
51327;DHT22;37412;52.836;6.362;2023-04-24T11:59:08;9.50;99.90
51327;DHT22;37412;52.836;6.362;2023-04-24T12:01:54;9.50;99.90
51327;DHT22;37412;52.836;6.362;2023-04-24T12:04:40;9.50;99.90
51327;DHT22;37412;52.836;6.362;2023-04-24T12:07:29;9.50;99.90
51327;DHT22;37412;52.836;6.362;2023-04-24T12:10:19;9.60;99.90
51327;DHT22;37412;52.836;6.362;2023-04-24T12:13:05;9.60;99.90
51327;DHT22;37412;52.836;6.362;2023-04-24T12:15:54;9.70;99.90
51327;DHT22;37412;52.836;6.362;2023-04-24T12:18:41;9.70;99.90
51327;DHT22;37412;52.836;6.362;2023-04-24T12:21:28;9.70;99.90
51327;DHT22;37412;52.836;6.362;2023-04-24T12:24:15;9.60;99.90
51327;DHT22;37412;52.836;6.362;2023-04-24T12:27:01;9.60;99.90
51327;DHT22;37412;52.836;6.362;2023-04-24T12:29:53;9.60;99.90
51327;DHT22;37412;52.836;6.362;2023-04-24T12:32:43;9.70;99.90
51327;DHT22;37412;52.836;6.362;2023-04-24T12:35:30;9.80;99.90
51327;DHT22;37412;52.836;6.362;2023-04-24T12:38:21;10.00;99.90
51327;DHT22;37412;52.836;6.362;2023-04-24T12:41:08;10.10;99.90
51327;DHT22;37412;52.836;6.362;2023-04-24T12:43:54;10.40;99.90
51327;DHT22;37412;52.836;6.362;2023-04-24T12:46:41;10.20;99.90
51327;DHT22;37412;52.836;6.362;2023-04-24T12:49:27;10.20;99.90
51327;DHT22;37412;52.836;6.362;2023-04-24T12:52:13;10.10;99.90
51327;DHT22;37412;52.836;6.362;2023-04-24T12:54:59;10.20;99.90
51327;DHT22;37412;52.836;6.362;2023-04-24T12:57:45;9.90;99.90
51327;DHT22;37412;52.836;6.362;2023-04-24T13:00:31;9.70;99.90
51327;DHT22;37412;52.836;6.362;2023-04-24T13:03:17;9.60;99.90
51327;DHT22;37412;52.836;6.362;2023-04-24T13:06:03;9.60;99.90
51327;DHT22;37412;52.836;6.362;2023-04-24T13:08:49;9.60;99.90
51327;DHT22;37412;52.836;6.362;2023-04-24T13:11:35;9.70;99.90
51327;DHT22;37412;52.836;6.362;2023-04-24T13:14:20;9.90;99.90
51327;DHT22;37412;52.836;6.362;2023-04-24T13:17:06;10.00;99.90
51327;DHT22;37412;52.836;6.362;2023-04-24T13:19:54;10.10;99.90
51327;DHT22;37412;52.836;6.362;2023-04-24T13:22:40;10.10;99.90
51327;DHT22;37412;52.836;6.362;2023-04-24T13:25:27;10.10;99.90
51327;DHT22;37412;52.836;6.362;2023-04-24T13:28:13;10.00;99.90
51327;DHT22;37412;52.836;6.362;2023-04-24T13:30:59;9.90;99.90
51327;DHT22;37412;52.836;6.362;2023-04-24T13:33:45;9.80;99.90
51327;DHT22;37412;52.836;6.362;2023-04-24T13:36:31;9.70;99.90
51327;DHT22;37412;52.836;6.362;2023-04-24T13:39:17;9.60;99.90
51327;DHT22;37412;52.836;6.362;2023-04-24T13:42:03;9.70;99.90
51327;DHT22;37412;52.836;6.362;2023-04-24T13:44:48;9.40;99.90
51327;DHT22;37412;52.836;6.362;2023-04-24T13:47:34;9.30;99.90
51327;DHT22;37412;52.836;6.362;2023-04-24T13:50:21;9.20;99.90
51327;DHT22;37412;52.836;6.362;2023-04-24T13:53:07;9.10;99.90
51327;DHT22;37412;52.836;6.362;2023-04-24T13:55:53;9.10;99.90
51327;DHT22;37412;52.836;6.362;2023-04-24T13:58:42;9.10;99.90
51327;DHT22;37412;52.836;6.362;2023-04-24T14:01:28;9.50;99.90
51327;DHT22;37412;52.836;6.362;2023-04-24T14:04:14;9.20;99.90
51327;DHT22;37412;52.836;6.362;2023-04-24T14:07:00;9.30;99.90
51327;DHT22;37412;52.836;6.362;2023-04-24T14:09:46;9.30;99.90
51327;DHT22;37412;52.836;6.362;2023-04-24T14:12:31;9.30;99.90
51327;DHT22;37412;52.836;6.362;2023-04-24T14:15:17;9.30;99.90
51327;DHT22;37412;52.836;6.362;2023-04-24T14:18:03;9.40;99.90
51327;DHT22;37412;52.836;6.362;2023-04-24T14:20:49;9.50;99.90
51327;DHT22;37412;52.836;6.362;2023-04-24T14:23:35;9.50;99.90
51327;DHT22;37412;52.836;6.362;2023-04-24T14:26:21;9.50;99.90
51327;DHT22;37412;52.836;6.362;2023-04-24T14:29:09;9.50;99.90
51327;DHT22;37412;52.836;6.362;2023-04-24T14:31:55;9.50;99.90
51327;DHT22;37412;52.836;6.362;2023-04-24T14:34:41;9.50;99.90
51327;DHT22;37412;52.836;6.362;2023-04-24T14:37:27;9.50;99.90
51327;DHT22;37412;52.836;6.362;2023-04-24T14:40:13;9.50;99.90
51327;DHT22;37412;52.836;6.362;2023-04-24T14:42:59;9.50;99.90
51327;DHT22;37412;52.836;6.362;2023-04-24T14:45:44;9.50;99.90
51327;DHT22;37412;52.836;6.362;2023-04-24T14:48:30;9.60;99.90
51327;DHT22;37412;52.836;6.362;2023-04-24T14:51:16;10.30;99.90
51327;DHT22;37412;52.836;6.362;2023-04-24T14:54:02;9.70;99.90
51327;DHT22;37412;52.836;6.362;2023-04-24T14:56:49;9.80;99.90
51327;DHT22;37412;52.836;6.362;2023-04-24T14:59:35;9.90;99.90
51327;DHT22;37412;52.836;6.362;2023-04-24T15:02:21;9.90;99.90
51327;DHT22;37412;52.836;6.362;2023-04-24T15:05:07;10.00;99.90
51327;DHT22;37412;52.836;6.362;2023-04-24T15:07:53;9.90;99.90
51327;DHT22;37412;52.836;6.362;2023-04-24T15:10:39;9.90;99.90
51327;DHT22;37412;52.836;6.362;2023-04-24T15:13:25;10.00;99.90
51327;DHT22;37412;52.836;6.362;2023-04-24T15:16:11;10.00;99.90
51327;DHT22;37412;52.836;6.362;2023-04-24T15:18:57;10.10;99.90
51327;DHT22;37412;52.836;6.362;2023-04-24T15:21:43;10.20;99.90
51327;DHT22;37412;52.836;6.362;2023-04-24T15:24:30;10.10;99.90
51327;DHT22;37412;52.836;6.362;2023-04-24T15:27:15;10.00;99.90
51327;DHT22;37412;52.836;6.362;2023-04-24T15:30:01;9.80;99.90
51327;DHT22;37412;52.836;6.362;2023-04-24T15:32:47;9.50;99.90
51327;DHT22;37412;52.836;6.362;2023-04-24T15:35:33;9.50;99.90
51327;DHT22;37412;52.836;6.362;2023-04-24T15:38:19;9.50;99.90
51327;DHT22;37412;52.836;6.362;2023-04-24T15:41:05;9.20;99.90
51327;DHT22;37412;52.836;6.362;2023-04-24T15:43:51;9.30;99.90
51327;DHT22;37412;52.836;6.362;2023-04-24T15:46:37;9.30;99.90
51327;DHT22;37412;52.836;6.362;2023-04-24T15:49:22;9.40;99.90
51327;DHT22;37412;52.836;6.362;2023-04-24T15:52:08;9.50;99.90
51327;DHT22;37412;52.836;6.362;2023-04-24T15:54:55;9.40;99.90
51327;DHT22;37412;52.836;6.362;2023-04-24T15:57:41;9.40;99.90
51327;DHT22;37412;52.836;6.362;2023-04-24T16:00:27;9.40;99.90
51327;DHT22;37412;52.836;6.362;2023-04-24T16:03:19;9.40;99.90
51327;DHT22;37412;52.836;6.362;2023-04-24T16:06:04;9.50;99.90
51327;DHT22;37412;52.836;6.362;2023-04-24T16:08:50;9.50;99.90
51327;DHT22;37412;52.836;6.362;2023-04-24T16:11:36;9.40;99.90
51327;DHT22;37412;52.836;6.362;2023-04-24T16:14:24;9.40;99.90
51327;DHT22;37412;52.836;6.362;2023-04-24T16:17:10;9.40;99.90
51327;DHT22;37412;52.836;6.362;2023-04-24T16:19:56;9.30;99.90
51327;DHT22;37412;52.836;6.362;2023-04-24T16:22:42;9.30;99.90
51327;DHT22;37412;52.836;6.362;2023-04-24T16:25:28;9.30;99.90
51327;DHT22;37412;52.836;6.362;2023-04-24T16:28:14;9.40;99.90
51327;DHT22;37412;52.836;6.362;2023-04-24T16:31:00;9.40;99.90
51327;DHT22;37412;52.836;6.362;2023-04-24T16:33:45;9.40;99.90
51327;DHT22;37412;52.836;6.362;2023-04-24T16:36:31;9.40;99.90
51327;DHT22;37412;52.836;6.362;2023-04-24T16:39:17;9.40;99.90
51327;DHT22;37412;52.836;6.362;2023-04-24T16:42:03;9.30;99.90
51327;DHT22;37412;52.836;6.362;2023-04-24T16:44:49;9.30;99.90
51327;DHT22;37412;52.836;6.362;2023-04-24T16:47:35;9.80;99.90
51327;DHT22;37412;52.836;6.362;2023-04-24T16:50:21;9.20;99.90
51327;DHT22;37412;52.836;6.362;2023-04-24T16:53:07;9.20;99.90
51327;DHT22;37412;52.836;6.362;2023-04-24T16:55:53;9.20;99.90
51327;DHT22;37412;52.836;6.362;2023-04-24T16:58:39;9.00;99.90
51327;DHT22;37412;52.836;6.362;2023-04-24T17:01:25;9.10;99.90
51327;DHT22;37412;52.836;6.362;2023-04-24T17:04:10;9.00;99.90
51327;DHT22;37412;52.836;6.362;2023-04-24T17:06:56;8.90;99.90
51327;DHT22;37412;52.836;6.362;2023-04-24T17:09:42;8.90;99.90
51327;DHT22;37412;52.836;6.362;2023-04-24T17:12:28;8.90;99.90
51327;DHT22;37412;52.836;6.362;2023-04-24T17:15:17;8.90;99.90
51327;DHT22;37412;52.836;6.362;2023-04-24T17:18:03;8.80;99.90
51327;DHT22;37412;52.836;6.362;2023-04-24T17:20:50;8.80;99.90
51327;DHT22;37412;52.836;6.362;2023-04-24T17:23:36;8.90;99.90
51327;DHT22;37412;52.836;6.362;2023-04-24T17:26:21;8.80;99.90
51327;DHT22;37412;52.836;6.362;2023-04-24T17:29:07;8.80;99.90
51327;DHT22;37412;52.836;6.362;2023-04-24T17:31:53;8.80;99.90
51327;DHT22;37412;52.836;6.362;2023-04-24T17:34:39;8.80;99.90
51327;DHT22;37412;52.836;6.362;2023-04-24T17:37:25;8.80;99.90
51327;DHT22;37412;52.836;6.362;2023-04-24T17:40:11;8.80;99.90
51327;DHT22;37412;52.836;6.362;2023-04-24T17:42:57;8.80;99.90
51327;DHT22;37412;52.836;6.362;2023-04-24T17:45:43;8.80;99.90
51327;DHT22;37412;52.836;6.362;2023-04-24T17:48:30;8.80;99.90
51327;DHT22;37412;52.836;6.362;2023-04-24T17:51:15;8.70;99.90